sensor_id;sensor_type;location;lat;lon;timestamp;P1;durP1;ratioP1;P2;durP2;ratioP2
1507;SDS011;745;48.586;10.032;2023-03-13T00:01:32;7.50;;;4.10;;
1507;SDS011;745;48.586;10.032;2023-03-13T00:06:07;9.33;;;3.67;;
1507;SDS011;745;48.586;10.032;2023-03-13T00:10:38;6.00;;;3.20;;
1507;SDS011;745;48.586;10.032;2023-03-13T00:15:09;10.87;;;3.40;;
1507;SDS011;745;48.586;10.032;2023-03-13T00:19:40;8.40;;;3.43;;
1507;SDS011;745;48.586;10.032;2023-03-13T00:24:10;8.00;;;3.83;;
1507;SDS011;745;48.586;10.032;2023-03-13T00:28:41;5.70;;;3.23;;
1507;SDS011;745;48.586;10.032;2023-03-13T00:33:12;6.70;;;4.00;;
1507;SDS011;745;48.586;10.032;2023-03-13T00:37:42;8.50;;;3.60;;
1507;SDS011;745;48.586;10.032;2023-03-13T00:42:12;4.03;;;2.93;;
1507;SDS011;745;48.586;10.032;2023-03-13T00:46:42;4.00;;;3.27;;
1507;SDS011;745;48.586;10.032;2023-03-13T00:51:13;5.60;;;3.33;;
1507;SDS011;745;48.586;10.032;2023-03-13T00:55:51;10.40;;;3.73;;
1507;SDS011;745;48.586;10.032;2023-03-13T01:00:25;8.10;;;4.37;;
1507;SDS011;745;48.586;10.032;2023-03-13T01:04:55;7.70;;;3.60;;
1507;SDS011;745;48.586;10.032;2023-03-13T01:09:25;6.30;;;3.57;;
1507;SDS011;745;48.586;10.032;2023-03-13T01:13:56;4.63;;;3.20;;
1507;SDS011;745;48.586;10.032;2023-03-13T01:18:28;6.77;;;3.53;;
1507;SDS011;745;48.586;10.032;2023-03-13T01:22:59;7.00;;;3.37;;
1507;SDS011;745;48.586;10.032;2023-03-13T01:27:29;6.67;;;3.40;;
1507;SDS011;745;48.586;10.032;2023-03-13T01:31:59;6.33;;;3.40;;
1507;SDS011;745;48.586;10.032;2023-03-13T01:36:30;5.73;;;3.20;;
1507;SDS011;745;48.586;10.032;2023-03-13T01:41:01;8.23;;;2.83;;
1507;SDS011;745;48.586;10.032;2023-03-13T01:50:27;6.43;;;3.30;;
1507;SDS011;745;48.586;10.032;2023-03-13T01:55:04;4.07;;;3.00;;
1507;SDS011;745;48.586;10.032;2023-03-13T01:59:43;4.67;;;2.73;;
1507;SDS011;745;48.586;10.032;2023-03-13T02:04:16;4.10;;;3.10;;
1507;SDS011;745;48.586;10.032;2023-03-13T02:08:57;5.40;;;3.20;;
1507;SDS011;745;48.586;10.032;2023-03-13T02:13:30;10.60;;;3.30;;
1507;SDS011;745;48.586;10.032;2023-03-13T02:18:00;4.60;;;2.87;;
1507;SDS011;745;48.586;10.032;2023-03-13T02:27:29;5.17;;;3.00;;
1507;SDS011;745;48.586;10.032;2023-03-13T02:32:00;9.70;;;3.67;;
1507;SDS011;745;48.586;10.032;2023-03-13T02:36:30;5.33;;;3.17;;
1507;SDS011;745;48.586;10.032;2023-03-13T02:41:01;8.30;;;3.47;;
1507;SDS011;745;48.586;10.032;2023-03-13T02:45:33;4.43;;;3.13;;
1507;SDS011;745;48.586;10.032;2023-03-13T02:50:03;7.10;;;3.40;;
1507;SDS011;745;48.586;10.032;2023-03-13T02:54:34;5.17;;;3.10;;
1507;SDS011;745;48.586;10.032;2023-03-13T02:59:06;4.90;;;3.57;;
1507;SDS011;745;48.586;10.032;2023-03-13T03:03:36;3.60;;;3.20;;
1507;SDS011;745;48.586;10.032;2023-03-13T03:08:07;6.50;;;3.60;;
1507;SDS011;745;48.586;10.032;2023-03-13T03:12:37;4.50;;;3.53;;
1507;SDS011;745;48.586;10.032;2023-03-13T03:17:08;2.50;;;2.30;;
1507;SDS011;745;48.586;10.032;2023-03-13T03:21:39;4.57;;;3.20;;
1507;SDS011;745;48.586;10.032;2023-03-13T03:26:09;5.93;;;2.90;;
1507;SDS011;745;48.586;10.032;2023-03-13T03:30:39;3.30;;;2.40;;
1507;SDS011;745;48.586;10.032;2023-03-13T03:35:10;4.00;;;2.43;;
1507;SDS011;745;48.586;10.032;2023-03-13T03:39:40;4.07;;;2.47;;
1507;SDS011;745;48.586;10.032;2023-03-13T03:44:10;6.50;;;2.90;;
1507;SDS011;745;48.586;10.032;2023-03-13T03:48:41;7.30;;;3.00;;
1507;SDS011;745;48.586;10.032;2023-03-13T03:53:11;5.57;;;3.50;;
1507;SDS011;745;48.586;10.032;2023-03-13T03:57:42;7.33;;;3.00;;
1507;SDS011;745;48.586;10.032;2023-03-13T04:02:12;4.73;;;2.97;;
1507;SDS011;745;48.586;10.032;2023-03-13T04:06:43;2.80;;;2.60;;
1507;SDS011;745;48.586;10.032;2023-03-13T04:11:13;5.43;;;2.97;;
1507;SDS011;745;48.586;10.032;2023-03-13T04:15:44;6.00;;;3.20;;
1507;SDS011;745;48.586;10.032;2023-03-13T04:20:14;6.83;;;2.63;;
1507;SDS011;745;48.586;10.032;2023-03-13T04:24:44;4.77;;;3.10;;
1507;SDS011;745;48.586;10.032;2023-03-13T04:29:15;6.00;;;2.70;;
1507;SDS011;745;48.586;10.032;2023-03-13T04:33:46;7.13;;;3.20;;
1507;SDS011;745;48.586;10.032;2023-03-13T04:38:16;8.20;;;6.17;;
1507;SDS011;745;48.586;10.032;2023-03-13T04:42:47;6.73;;;5.70;;
1507;SDS011;745;48.586;10.032;2023-03-13T04:47:17;11.30;;;10.20;;
1507;SDS011;745;48.586;10.032;2023-03-13T04:51:47;10.50;;;9.60;;
1507;SDS011;745;48.586;10.032;2023-03-13T04:56:22;9.73;;;8.87;;
1507;SDS011;745;48.586;10.032;2023-03-13T05:00:53;4.80;;;4.00;;
1507;SDS011;745;48.586;10.032;2023-03-13T05:05:24;5.50;;;2.80;;
1507;SDS011;745;48.586;10.032;2023-03-13T05:09:54;2.70;;;2.50;;
1507;SDS011;745;48.586;10.032;2023-03-13T05:14:24;2.90;;;2.50;;
1507;SDS011;745;48.586;10.032;2023-03-13T05:18:55;4.90;;;2.80;;
1507;SDS011;745;48.586;10.032;2023-03-13T05:23:25;6.03;;;2.87;;
1507;SDS011;745;48.586;10.032;2023-03-13T05:27:55;4.73;;;3.00;;
1507;SDS011;745;48.586;10.032;2023-03-13T05:32:26;3.47;;;2.93;;
1507;SDS011;745;48.586;10.032;2023-03-13T05:36:56;4.17;;;3.40;;
1507;SDS011;745;48.586;10.032;2023-03-13T05:41:26;3.80;;;2.73;;
1507;SDS011;745;48.586;10.032;2023-03-13T05:45:57;4.10;;;2.60;;
1507;SDS011;745;48.586;10.032;2023-03-13T05:50:27;3.13;;;2.70;;
1507;SDS011;745;48.586;10.032;2023-03-13T05:54:57;3.63;;;2.83;;
1507;SDS011;745;48.586;10.032;2023-03-13T05:59:28;2.83;;;2.60;;
1507;SDS011;745;48.586;10.032;2023-03-13T06:03:58;4.23;;;2.40;;
1507;SDS011;745;48.586;10.032;2023-03-13T06:08:28;4.90;;;3.10;;
1507;SDS011;745;48.586;10.032;2023-03-13T06:12:59;3.10;;;2.80;;
1507;SDS011;745;48.586;10.032;2023-03-13T06:17:30;7.27;;;3.87;;
1507;SDS011;745;48.586;10.032;2023-03-13T06:22:00;8.00;;;5.03;;
1507;SDS011;745;48.586;10.032;2023-03-13T06:26:31;5.70;;;4.30;;
1507;SDS011;745;48.586;10.032;2023-03-13T06:31:04;3.90;;;2.87;;
1507;SDS011;745;48.586;10.032;2023-03-13T06:35:38;4.13;;;2.50;;
1507;SDS011;745;48.586;10.032;2023-03-13T06:40:10;4.40;;;2.77;;
1507;SDS011;745;48.586;10.032;2023-03-13T06:44:41;2.90;;;2.27;;
1507;SDS011;745;48.586;10.032;2023-03-13T06:49:11;3.53;;;3.20;;
1507;SDS011;745;48.586;10.032;2023-03-13T06:53:42;3.23;;;2.53;;
1507;SDS011;745;48.586;10.032;2023-03-13T06:58:12;5.17;;;2.80;;
1507;SDS011;745;48.586;10.032;2023-03-13T07:02:42;2.40;;;2.17;;
1507;SDS011;745;48.586;10.032;2023-03-13T07:07:13;2.43;;;2.00;;
1507;SDS011;745;48.586;10.032;2023-03-13T07:11:43;2.80;;;2.27;;
1507;SDS011;745;48.586;10.032;2023-03-13T07:16:14;4.43;;;3.40;;
1507;SDS011;745;48.586;10.032;2023-03-13T07:20:50;11.80;;;8.30;;
1507;SDS011;745;48.586;10.032;2023-03-13T07:25:24;7.50;;;5.03;;
1507;SDS011;745;48.586;10.032;2023-03-13T07:29:54;6.47;;;4.53;;
1507;SDS011;745;48.586;10.032;2023-03-13T07:34:24;3.47;;;2.40;;
1507;SDS011;745;48.586;10.032;2023-03-13T07:38:55;3.23;;;2.60;;
1507;SDS011;745;48.586;10.032;2023-03-13T07:43:25;2.43;;;2.20;;
1507;SDS011;745;48.586;10.032;2023-03-13T07:47:56;6.07;;;3.30;;
1507;SDS011;745;48.586;10.032;2023-03-13T07:52:26;2.60;;;1.90;;
1507;SDS011;745;48.586;10.032;2023-03-13T07:56:57;2.83;;;2.33;;
1507;SDS011;745;48.586;10.032;2023-03-13T08:01:27;2.47;;;2.10;;
1507;SDS011;745;48.586;10.032;2023-03-13T08:06:02;4.20;;;2.33;;
1507;SDS011;745;48.586;10.032;2023-03-13T08:10:34;2.13;;;1.93;;
1507;SDS011;745;48.586;10.032;2023-03-13T08:15:04;3.00;;;2.10;;
1507;SDS011;745;48.586;10.032;2023-03-13T08:19:35;3.20;;;2.33;;
1507;SDS011;745;48.586;10.032;2023-03-13T08:24:06;3.73;;;3.30;;
1507;SDS011;745;48.586;10.032;2023-03-13T08:28:38;6.37;;;2.83;;
1507;SDS011;745;48.586;10.032;2023-03-13T08:33:09;4.07;;;3.20;;
1507;SDS011;745;48.586;10.032;2023-03-13T08:37:39;4.77;;;2.20;;
1507;SDS011;745;48.586;10.032;2023-03-13T08:42:10;2.43;;;2.23;;
1507;SDS011;745;48.586;10.032;2023-03-13T08:46:43;2.30;;;1.93;;
1507;SDS011;745;48.586;10.032;2023-03-13T08:51:13;1.93;;;1.60;;
1507;SDS011;745;48.586;10.032;2023-03-13T08:55:50;2.47;;;2.10;;
1507;SDS011;745;48.586;10.032;2023-03-13T09:00:22;4.40;;;2.30;;
1507;SDS011;745;48.586;10.032;2023-03-13T09:04:52;2.03;;;1.70;;
1507;SDS011;745;48.586;10.032;2023-03-13T09:09:23;2.63;;;2.17;;
1507;SDS011;745;48.586;10.032;2023-03-13T09:13:53;3.00;;;2.60;;
1507;SDS011;745;48.586;10.032;2023-03-13T09:18:25;3.67;;;2.60;;
1507;SDS011;745;48.586;10.032;2023-03-13T09:22:55;2.80;;;2.50;;
1507;SDS011;745;48.586;10.032;2023-03-13T09:27:26;11.43;;;3.63;;
1507;SDS011;745;48.586;10.032;2023-03-13T09:31:57;5.50;;;3.80;;
1507;SDS011;745;48.586;10.032;2023-03-13T09:36:27;5.40;;;3.43;;
1507;SDS011;745;48.586;10.032;2023-03-13T09:41:21;11.03;;;7.43;;
1507;SDS011;745;48.586;10.032;2023-03-13T09:45:53;4.93;;;3.00;;
1507;SDS011;745;48.586;10.032;2023-03-13T09:50:30;2.30;;;2.10;;
1507;SDS011;745;48.586;10.032;2023-03-13T09:55:19;2.00;;;1.80;;
1507;SDS011;745;48.586;10.032;2023-03-13T09:59:53;2.33;;;1.70;;
1507;SDS011;745;48.586;10.032;2023-03-13T10:09:17;3.20;;;2.40;;
1507;SDS011;745;48.586;10.032;2023-03-13T10:18:20;2.50;;;2.00;;
1507;SDS011;745;48.586;10.032;2023-03-13T10:22:55;4.43;;;2.17;;
1507;SDS011;745;48.586;10.032;2023-03-13T10:27:28;1.97;;;1.60;;
1507;SDS011;745;48.586;10.032;2023-03-13T10:31:59;2.50;;;1.83;;
1507;SDS011;745;48.586;10.032;2023-03-13T10:36:43;2.27;;;1.60;;
1507;SDS011;745;48.586;10.032;2023-03-13T10:41:25;2.50;;;1.50;;
1507;SDS011;745;48.586;10.032;2023-03-13T10:45:57;4.83;;;1.60;;
1507;SDS011;745;48.586;10.032;2023-03-13T10:50:31;2.20;;;1.60;;
1507;SDS011;745;48.586;10.032;2023-03-13T10:55:04;2.10;;;1.70;;
1507;SDS011;745;48.586;10.032;2023-03-13T10:59:38;2.47;;;2.17;;
1507;SDS011;745;48.586;10.032;2023-03-13T11:04:19;1.70;;;1.60;;
1507;SDS011;745;48.586;10.032;2023-03-13T11:13:39;2.10;;;1.90;;
1507;SDS011;745;48.586;10.032;2023-03-13T11:22:54;3.30;;;2.13;;
1507;SDS011;745;48.586;10.032;2023-03-13T11:27:35;4.03;;;2.20;;
1507;SDS011;745;48.586;10.032;2023-03-13T11:32:16;3.07;;;2.10;;
1507;SDS011;745;48.586;10.032;2023-03-13T11:37:11;2.60;;;2.03;;
1507;SDS011;745;48.586;10.032;2023-03-13T11:51:20;3.03;;;2.20;;
1507;SDS011;745;48.586;10.032;2023-03-13T11:56:02;2.00;;;1.60;;
1507;SDS011;745;48.586;10.032;2023-03-13T12:00:43;5.07;;;2.43;;
1507;SDS011;745;48.586;10.032;2023-03-13T12:05:18;2.00;;;1.90;;
1507;SDS011;745;48.586;10.032;2023-03-13T12:14:46;2.63;;;2.13;;
1507;SDS011;745;48.586;10.032;2023-03-13T12:19:57;4.23;;;2.00;;
1507;SDS011;745;48.586;10.032;2023-03-13T12:25:02;2.30;;;2.10;;
1507;SDS011;745;48.586;10.032;2023-03-13T12:29:57;2.43;;;1.80;;
1507;SDS011;745;48.586;10.032;2023-03-13T12:39:47;2.00;;;1.83;;
1507;SDS011;745;48.586;10.032;2023-03-13T12:44:19;2.10;;;1.90;;
1507;SDS011;745;48.586;10.032;2023-03-13T12:54:26;4.00;;;2.53;;
1507;SDS011;745;48.586;10.032;2023-03-13T13:03:30;2.53;;;2.33;;
1507;SDS011;745;48.586;10.032;2023-03-13T13:08:20;2.57;;;2.23;;
1507;SDS011;745;48.586;10.032;2023-03-13T13:18:26;2.40;;;2.20;;
1507;SDS011;745;48.586;10.032;2023-03-13T13:22:46;3.10;;;2.30;;
1507;SDS011;745;48.586;10.032;2023-03-13T13:32:03;2.80;;;2.23;;
1507;SDS011;745;48.586;10.032;2023-03-13T13:36:41;3.20;;;2.40;;
1507;SDS011;745;48.586;10.032;2023-03-13T13:45:55;3.67;;;2.40;;
1507;SDS011;745;48.586;10.032;2023-03-13T13:50:28;4.50;;;2.40;;
1507;SDS011;745;48.586;10.032;2023-03-13T13:55:00;4.17;;;2.30;;
1507;SDS011;745;48.586;10.032;2023-03-13T13:59:33;4.03;;;2.60;;
1507;SDS011;745;48.586;10.032;2023-03-13T14:04:26;2.37;;;2.10;;
1507;SDS011;745;48.586;10.032;2023-03-13T14:09:01;3.20;;;2.60;;
1507;SDS011;745;48.586;10.032;2023-03-13T14:13:43;2.50;;;2.30;;
1507;SDS011;745;48.586;10.032;2023-03-13T14:22:48;2.23;;;2.00;;
1507;SDS011;745;48.586;10.032;2023-03-13T14:27:19;4.63;;;2.23;;
1507;SDS011;745;48.586;10.032;2023-03-13T14:31:57;2.70;;;2.13;;
1507;SDS011;745;48.586;10.032;2023-03-13T14:36:28;3.30;;;2.17;;
1507;SDS011;745;48.586;10.032;2023-03-13T14:40:59;1.90;;;1.80;;
1507;SDS011;745;48.586;10.032;2023-03-13T14:45:30;3.30;;;2.10;;
1507;SDS011;745;48.586;10.032;2023-03-13T14:50:03;2.50;;;2.30;;
1507;SDS011;745;48.586;10.032;2023-03-13T14:54:51;2.90;;;1.93;;
1507;SDS011;745;48.586;10.032;2023-03-13T14:59:26;2.80;;;1.73;;
1507;SDS011;745;48.586;10.032;2023-03-13T15:03:56;5.33;;;1.80;;
1507;SDS011;745;48.586;10.032;2023-03-13T15:08:27;2.13;;;1.87;;
1507;SDS011;745;48.586;10.032;2023-03-13T15:12:58;1.97;;;1.70;;
1507;SDS011;745;48.586;10.032;2023-03-13T15:17:28;3.10;;;2.00;;
1507;SDS011;745;48.586;10.032;2023-03-13T15:21:59;2.00;;;1.80;;
1507;SDS011;745;48.586;10.032;2023-03-13T15:26:29;1.93;;;1.50;;
1507;SDS011;745;48.586;10.032;2023-03-13T15:30:59;2.20;;;1.97;;
1507;SDS011;745;48.586;10.032;2023-03-13T15:35:30;2.70;;;1.90;;
1507;SDS011;745;48.586;10.032;2023-03-13T15:40:04;2.30;;;1.70;;
1507;SDS011;745;48.586;10.032;2023-03-13T15:44:36;3.90;;;1.97;;
1507;SDS011;745;48.586;10.032;2023-03-13T15:49:09;2.10;;;1.70;;
1507;SDS011;745;48.586;10.032;2023-03-13T15:53:41;3.10;;;1.40;;
1507;SDS011;745;48.586;10.032;2023-03-13T15:58:12;1.50;;;1.40;;
1507;SDS011;745;48.586;10.032;2023-03-13T16:02:43;1.70;;;1.60;;
1507;SDS011;745;48.586;10.032;2023-03-13T16:07:17;1.90;;;1.70;;
1507;SDS011;745;48.586;10.032;2023-03-13T16:11:51;2.10;;;1.90;;
1507;SDS011;745;48.586;10.032;2023-03-13T16:16:23;2.70;;;1.93;;
1507;SDS011;745;48.586;10.032;2023-03-13T16:20:58;1.83;;;1.70;;
1507;SDS011;745;48.586;10.032;2023-03-13T16:25:30;1.97;;;1.87;;
1507;SDS011;745;48.586;10.032;2023-03-13T16:30:01;3.53;;;2.10;;
1507;SDS011;745;48.586;10.032;2023-03-13T16:34:33;2.20;;;2.00;;
1507;SDS011;745;48.586;10.032;2023-03-13T16:39:05;2.70;;;2.10;;
1507;SDS011;745;48.586;10.032;2023-03-13T16:43:37;3.13;;;2.67;;
1507;SDS011;745;48.586;10.032;2023-03-13T16:48:09;2.53;;;2.03;;
1507;SDS011;745;48.586;10.032;2023-03-13T16:52:45;3.10;;;2.70;;
1507;SDS011;745;48.586;10.032;2023-03-13T16:57:21;3.67;;;3.30;;
1507;SDS011;745;48.586;10.032;2023-03-13T17:01:52;2.70;;;2.50;;
1507;SDS011;745;48.586;10.032;2023-03-13T17:06:24;3.00;;;2.70;;
1507;SDS011;745;48.586;10.032;2023-03-13T17:10:57;3.30;;;3.00;;
1507;SDS011;745;48.586;10.032;2023-03-13T17:15:27;4.10;;;3.70;;
1507;SDS011;745;48.586;10.032;2023-03-13T17:19:57;5.00;;;3.27;;
1507;SDS011;745;48.586;10.032;2023-03-13T17:24:28;4.27;;;3.47;;
1507;SDS011;745;48.586;10.032;2023-03-13T17:28:58;5.87;;;5.00;;
1507;SDS011;745;48.586;10.032;2023-03-13T17:33:29;5.93;;;4.90;;
1507;SDS011;745;48.586;10.032;2023-03-13T17:37:59;6.17;;;4.70;;
1507;SDS011;745;48.586;10.032;2023-03-13T17:42:30;5.27;;;4.07;;
1507;SDS011;745;48.586;10.032;2023-03-13T17:47:00;3.40;;;3.10;;
1507;SDS011;745;48.586;10.032;2023-03-13T17:51:31;3.37;;;3.07;;
1507;SDS011;745;48.586;10.032;2023-03-13T17:56:04;3.00;;;2.73;;
1507;SDS011;745;48.586;10.032;2023-03-13T18:00:48;2.70;;;2.50;;
1507;SDS011;745;48.586;10.032;2023-03-13T18:05:19;2.80;;;2.37;;
1507;SDS011;745;48.586;10.032;2023-03-13T18:09:50;2.73;;;2.53;;
1507;SDS011;745;48.586;10.032;2023-03-13T18:14:21;3.57;;;2.60;;
1507;SDS011;745;48.586;10.032;2023-03-13T18:18:52;3.40;;;3.10;;
1507;SDS011;745;48.586;10.032;2023-03-13T18:23:23;3.07;;;2.73;;
1507;SDS011;745;48.586;10.032;2023-03-13T18:27:53;2.23;;;2.03;;
1507;SDS011;745;48.586;10.032;2023-03-13T18:32:24;4.63;;;3.43;;
1507;SDS011;745;48.586;10.032;2023-03-13T18:36:54;2.80;;;2.57;;
1507;SDS011;745;48.586;10.032;2023-03-13T18:41:25;4.43;;;3.27;;
1507;SDS011;745;48.586;10.032;2023-03-13T18:45:55;3.40;;;3.03;;
1507;SDS011;745;48.586;10.032;2023-03-13T18:50:27;2.53;;;2.30;;
1507;SDS011;745;48.586;10.032;2023-03-13T18:54:58;3.63;;;2.70;;
1507;SDS011;745;48.586;10.032;2023-03-13T18:59:28;3.80;;;2.63;;
1507;SDS011;745;48.586;10.032;2023-03-13T19:03:59;3.40;;;3.10;;
1507;SDS011;745;48.586;10.032;2023-03-13T19:08:29;2.67;;;2.47;;
1507;SDS011;745;48.586;10.032;2023-03-13T19:12:59;16.30;;;8.23;;
1507;SDS011;745;48.586;10.032;2023-03-13T19:17:30;6.87;;;3.80;;
1507;SDS011;745;48.586;10.032;2023-03-13T19:22:01;4.43;;;3.20;;
1507;SDS011;745;48.586;10.032;2023-03-13T19:26:34;4.43;;;3.20;;
1507;SDS011;745;48.586;10.032;2023-03-13T19:31:05;8.47;;;5.80;;
1507;SDS011;745;48.586;10.032;2023-03-13T19:35:36;6.27;;;5.17;;
1507;SDS011;745;48.586;10.032;2023-03-13T19:40:17;4.70;;;4.00;;
1507;SDS011;745;48.586;10.032;2023-03-13T19:44:47;2.00;;;1.60;;
1507;SDS011;745;48.586;10.032;2023-03-13T19:49:19;2.10;;;1.90;;
1507;SDS011;745;48.586;10.032;2023-03-13T19:53:49;1.60;;;1.47;;
1507;SDS011;745;48.586;10.032;2023-03-13T19:58:20;1.90;;;1.60;;
1507;SDS011;745;48.586;10.032;2023-03-13T20:02:50;1.63;;;1.23;;
1507;SDS011;745;48.586;10.032;2023-03-13T20:07:23;2.00;;;1.60;;
1507;SDS011;745;48.586;10.032;2023-03-13T20:11:54;3.10;;;1.50;;
1507;SDS011;745;48.586;10.032;2023-03-13T20:16:24;1.53;;;1.43;;
1507;SDS011;745;48.586;10.032;2023-03-13T20:20:56;1.40;;;1.30;;
1507;SDS011;745;48.586;10.032;2023-03-13T20:25:27;1.70;;;1.30;;
1507;SDS011;745;48.586;10.032;2023-03-13T20:29:57;4.10;;;1.47;;
1507;SDS011;745;48.586;10.032;2023-03-13T20:34:28;1.40;;;1.30;;
1507;SDS011;745;48.586;10.032;2023-03-13T20:38:58;1.43;;;1.33;;
1507;SDS011;745;48.586;10.032;2023-03-13T20:43:28;3.37;;;1.77;;
1507;SDS011;745;48.586;10.032;2023-03-13T20:47:59;1.50;;;1.30;;
1507;SDS011;745;48.586;10.032;2023-03-13T20:52:29;1.93;;;1.43;;
1507;SDS011;745;48.586;10.032;2023-03-13T20:56:59;3.80;;;1.77;;
1507;SDS011;745;48.586;10.032;2023-03-13T21:01:31;1.83;;;1.33;;
1507;SDS011;745;48.586;10.032;2023-03-13T21:06:11;1.80;;;1.43;;
1507;SDS011;745;48.586;10.032;2023-03-13T21:10:45;1.73;;;1.57;;
1507;SDS011;745;48.586;10.032;2023-03-13T21:15:15;1.63;;;1.33;;
1507;SDS011;745;48.586;10.032;2023-03-13T21:19:46;1.40;;;1.30;;
1507;SDS011;745;48.586;10.032;2023-03-13T21:24:16;1.50;;;1.40;;
1507;SDS011;745;48.586;10.032;2023-03-13T21:28:48;2.07;;;1.47;;
1507;SDS011;745;48.586;10.032;2023-03-13T21:33:18;2.10;;;1.20;;
1507;SDS011;745;48.586;10.032;2023-03-13T21:37:49;1.10;;;1.00;;
1507;SDS011;745;48.586;10.032;2023-03-13T21:42:19;1.00;;;0.90;;
1507;SDS011;745;48.586;10.032;2023-03-13T21:46:49;1.20;;;1.10;;
1507;SDS011;745;48.586;10.032;2023-03-13T21:51:20;1.73;;;1.00;;
1507;SDS011;745;48.586;10.032;2023-03-13T21:55:50;2.13;;;1.00;;
1507;SDS011;745;48.586;10.032;2023-03-13T22:00:21;1.00;;;1.00;;
1507;SDS011;745;48.586;10.032;2023-03-13T22:04:52;1.30;;;1.20;;
1507;SDS011;745;48.586;10.032;2023-03-13T22:09:22;1.27;;;1.10;;
1507;SDS011;745;48.586;10.032;2023-03-13T22:13:53;3.50;;;1.73;;
1507;SDS011;745;48.586;10.032;2023-03-13T22:18:23;0.90;;;0.90;;
1507;SDS011;745;48.586;10.032;2023-03-13T22:22:53;1.00;;;1.00;;
1507;SDS011;745;48.586;10.032;2023-03-13T22:27:24;0.80;;;0.80;;
1507;SDS011;745;48.586;10.032;2023-03-13T22:31:54;1.17;;;1.07;;
1507;SDS011;745;48.586;10.032;2023-03-13T22:36:24;1.30;;;1.20;;
1507;SDS011;745;48.586;10.032;2023-03-13T22:40:56;1.20;;;1.10;;
1507;SDS011;745;48.586;10.032;2023-03-13T22:45:27;1.00;;;0.80;;
1507;SDS011;745;48.586;10.032;2023-03-13T22:49:59;1.10;;;1.00;;
1507;SDS011;745;48.586;10.032;2023-03-13T22:54:29;0.93;;;0.90;;
1507;SDS011;745;48.586;10.032;2023-03-13T22:59:00;1.20;;;1.00;;
1507;SDS011;745;48.586;10.032;2023-03-13T23:03:32;1.40;;;1.30;;
1507;SDS011;745;48.586;10.032;2023-03-13T23:08:02;1.30;;;1.00;;
1507;SDS011;745;48.586;10.032;2023-03-13T23:12:33;1.20;;;1.10;;
1507;SDS011;745;48.586;10.032;2023-03-13T23:17:03;2.13;;;1.20;;
1507;SDS011;745;48.586;10.032;2023-03-13T23:21:33;1.20;;;1.10;;
1507;SDS011;745;48.586;10.032;2023-03-13T23:26:05;1.80;;;1.70;;
1507;SDS011;745;48.586;10.032;2023-03-13T23:30:37;1.40;;;1.30;;
1507;SDS011;745;48.586;10.032;2023-03-13T23:35:08;2.40;;;1.30;;
1507;SDS011;745;48.586;10.032;2023-03-13T23:39:40;1.60;;;1.50;;
1507;SDS011;745;48.586;10.032;2023-03-13T23:44:10;1.70;;;1.60;;
1507;SDS011;745;48.586;10.032;2023-03-13T23:48:40;2.73;;;1.93;;
1507;SDS011;745;48.586;10.032;2023-03-13T23:53:11;2.23;;;2.03;;
1507;SDS011;745;48.586;10.032;2023-03-13T23:57:41;2.83;;;1.57;;
